Date,TemperatureHighF,TemperatureAvgF,TemperatureLowF,DewpointHighF,DewpointAvgF,DewpointLowF,HumidityHigh,HumidityAvg,HumidityLow,PressureMaxIn,PressureMinIn,WindSpeedMaxMPH,WindSpeedAvgMPH,GustSpeedMaxMPH,PrecipitationSumIn
2013-7-1,70.7,68.5,66.1,65.0,63.7,61.8,90,85,77,29.99,29.83,17,3,18,0.02
2013-7-2,74.8,67.9,63.1,67.3,62.5,59.7,90,83,75,30.03,29.94,11,2,17,0.00
2013-7-3,85.8,73.5,64.3,75.5,68.1,61.4,93,84,65,30.09,30.02,7,0,7,0.39
2013-7-4,81.5,74.6,70.4,74.1,69.9,68.0,93,85,71,30.14,30.07,5,0,6,0.01
2013-7-5,79.0,73.4,70.0,73.0,68.5,66.5,93,85,72,30.10,30.05,10,1,12,0.30
2013-7-6,83.3,74.8,68.6,73.5,69.8,66.1,93,85,67,30.12,29.98,6,0,9,0.23
2013-7-7,78.1,73.4,69.8,71.1,68.2,65.4,93,84,71,30.03,29.94,11,1,12,0.01
2013-7-8,84.7,74.0,68.4,73.7,68.2,64.6,93,83,64,30.05,29.96,7,0,10,0.94
2013-7-9,82.5,75.0,69.8,74.8,71.1,67.6,94,88,71,30.01,29.87,7,1,10,0.10
2013-7-10,87.0,75.0,69.3,78.2,70.6,65.8,93,86,69,29.89,29.68,16,1,16,0.44
2013-7-11,73.8,70.6,67.6,67.5,61.0,58.1,89,72,63,30.00,29.86,7,1,9,0.00
2013-7-12,78.0,71.3,62.5,68.4,64.5,59.3,92,80,65,30.11,29.99,13,1,14,0.00
2013-7-13,80.3,72.2,61.9,70.8,64.6,58.3,90,78,63,30.19,30.09,12,1,12,0.00
2013-7-14,88.2,77.8,67.5,74.8,70.0,64.7,93,78,59,30.24,30.19,9,1,11,0.00
2013-7-15,86.6,79.3,72.1,76.0,72.5,69.2,92,80,66,30.27,30.20,6,1,10,0.00
2013-7-16,88.0,80.5,74.0,77.3,73.8,71.3,92,81,65,30.26,30.19,5,1,7,0.00
2013-7-17,89.2,81.6,74.3,77.9,73.9,71.5,92,78,61,30.23,30.10,7,1,12,0.00
2013-7-18,89.8,82.1,76.4,78.0,74.4,72.5,90,78,59,30.11,29.94,9,1,11,0.00
2013-7-19,93.3,83.3,71.0,77.2,73.1,65.6,89,72,51,29.94,29.73,13,2,16,0.22
2013-7-20,80.3,73.3,68.6,73.6,68.8,66.4,93,86,68,29.88,29.73,9,1,12,1.37
2013-7-21,81.2,74.0,67.1,71.9,66.6,62.5,93,79,59,29.95,29.87,10,1,13,0.00
2013-7-22,79.3,71.5,64.1,71.9,67.0,61.2,92,86,71,29.94,29.73,6,0,7,0.16
2013-7-23,81.5,72.4,66.5,72.3,67.5,59.3,94,85,65,29.77,29.61,9,1,14,0.47
2013-7-24,71.2,65.1,57.4,59.5,53.9,51.2,88,68,51,30.02,29.77,11,1,14,0.00
2013-7-25,75.9,65.2,53.2,58.1,53.2,49.0,90,68,43,30.08,30.01,10,1,12,0.00
2013-7-26,78.4,67.5,55.9,64.6,58.3,52.6,90,74,52,30.08,29.93,7,0,8,0.00
2013-7-27,70.7,67.4,63.9,67.3,63.1,59.0,90,86,79,29.94,29.76,4,0,6,0.17
2013-7-28,71.1,65.5,59.9,64.5,56.5,48.2,91,74,49,29.97,29.79,10,1,12,0.45
2013-7-29,71.6,64.3,58.1,59.9,56.4,51.1,89,76,55,30.16,29.96,11,1,12,0.03
2013-7-30,75.2,65.9,55.6,65.4,58.5,53.3,93,78,56,30.21,30.13,6,0,9,0.00
2013-7-31,81.9,69.3,59.4,67.0,61.8,56.2,91,78,55,30.13,29.87,6,0,7,0.00